Detroit Lakes Airport - Wething Field


Codes: KDTL/DTL
Name: Detroit Lakes Airport - Wething Field
City: Detroit Lakes
Country: United States
Elevation: 1397 ft.
Website:
Wikipedia:

Photos at Detroit Lakes Airport - Wething Field


   Photos courtesy of SpottingLog. You can add your own sightings and photos by signing up for a free trial today.



No photos found.

Weather at Detroit Lakes Airport - Wething Field


Time (UTC)DescriptionTempratureWindCloud coverageVisibilityPressureHumidity
18-Apr-2024 00:00Scattered Clouds10°C11 mph, W40%10000m1010hPa62%
18-Apr-2024 03:00Broken Clouds9°C7 mph, W51%10000m1010hPa59%
18-Apr-2024 06:00Scattered Clouds7°C11 mph, W49%10000m1013hPa60%
18-Apr-2024 09:00Clear Sky4°C13 mph, W0%10000m1014hPa60%
18-Apr-2024 12:00Clear Sky2°C13 mph, W0%10000m1015hPa60%
18-Apr-2024 15:00Few Clouds4°C20 mph, W21%10000m1016hPa53%
18-Apr-2024 18:00Broken Clouds4°C18 mph, W61%10000m1016hPa52%
18-Apr-2024 21:00Light Rain6°C20 mph, W100%10000m1016hPa45%
19-Apr-2024 00:00Light Snow5°C16 mph, W100%10000m1016hPa48%
19-Apr-2024 03:00Broken Clouds2°C16 mph, W69%10000m1017hPa52%
19-Apr-2024 06:00Scattered Clouds1°C16 mph, W36%10000m1017hPa56%
19-Apr-2024 09:00Few Clouds-1°C16 mph, W12%10000m1017hPa61%
19-Apr-2024 12:00Few Clouds-2°C16 mph, W20%10000m1018hPa65%
19-Apr-2024 15:00Broken Clouds1°C18 mph, W82%10000m1019hPa52%
19-Apr-2024 18:00Light Rain3°C20 mph, W91%7108m1018hPa46%
19-Apr-2024 21:00Light Snow3°C18 mph, W100%10000m1018hPa48%
20-Apr-2024 00:00Light Snow2°C16 mph, NW100%10000m1019hPa59%
20-Apr-2024 03:00Light Snow-0°C11 mph, NW100%10000m1021hPa70%
20-Apr-2024 06:00Light Snow-2°C16 mph, NW95%10000m1023hPa74%
20-Apr-2024 09:00Light Snow-2°C16 mph, NW98%10000m1024hPa83%
20-Apr-2024 12:00Light Snow-2°C16 mph, NW99%762m1026hPa88%
20-Apr-2024 15:00Overcast Clouds-0°C16 mph, NW100%10000m1027hPa67%
20-Apr-2024 18:00Overcast Clouds3°C13 mph, NW100%10000m1027hPa51%
20-Apr-2024 21:00Scattered Clouds7°C13 mph, NW46%10000m1024hPa34%
21-Apr-2024 00:00Broken Clouds6°C9 mph, NW56%10000m1023hPa36%
21-Apr-2024 03:00Few Clouds2°C7 mph, W13%10000m1024hPa47%
21-Apr-2024 06:00Clear Sky1°C7 mph, W7%10000m1024hPa56%
21-Apr-2024 09:00Clear Sky0°C7 mph, W4%10000m1023hPa61%
21-Apr-2024 12:00Clear Sky0°C7 mph, W2%10000m1023hPa65%
21-Apr-2024 15:00Clear Sky7°C11 mph, W0%10000m1022hPa48%
21-Apr-2024 18:00Clear Sky10°C11 mph, W0%10000m1020hPa36%
21-Apr-2024 21:00Clear Sky12°C9 mph, W0%10000m1017hPa30%
22-Apr-2024 00:00Clear Sky12°C7 mph, W1%10000m1016hPa34%
22-Apr-2024 03:00Scattered Clouds7°C7 mph, S30%10000m1016hPa42%
22-Apr-2024 06:00Broken Clouds6°C7 mph, S58%10000m1015hPa42%
22-Apr-2024 09:00Overcast Clouds5°C9 mph, S100%10000m1013hPa51%
22-Apr-2024 12:00Overcast Clouds6°C9 mph, SE100%10000m1011hPa64%
22-Apr-2024 15:00Overcast Clouds11°C13 mph, S100%10000m1007hPa57%
22-Apr-2024 18:00Light Rain12°C16 mph, SW100%6857m1005hPa71%
22-Apr-2024 21:00Moderate Rain13°C11 mph, SW70%10000m1004hPa62%